createdAt,value
2022-08-22T00:00:01.581Z,20
2022-08-22T00:03:14.158Z,20
2022-08-22T00:10:01.669Z,20
2022-08-22T00:20:01.578Z,20
2022-08-22T00:30:01.676Z,20
2022-08-22T00:40:03.292Z,19
2022-08-22T00:50:01.699Z,18.5
2022-08-22T01:00:01.599Z,18.5
2022-08-22T01:10:01.702Z,19
2022-08-22T01:20:01.792Z,19.5
2022-08-22T01:30:01.696Z,20
2022-08-22T01:40:01.846Z,19.5
2022-08-22T01:50:01.710Z,19.5
2022-08-22T02:00:01.821Z,19.5
2022-08-22T02:10:01.723Z,19
2022-08-22T02:20:01.812Z,18.5
2022-08-22T02:30:01.702Z,18.5
2022-08-22T02:40:01.887Z,18.5
2022-08-22T02:50:01.911Z,18.5
2022-08-22T03:00:01.808Z,18.5
2022-08-22T03:10:01.901Z,18.5
2022-08-22T03:20:01.797Z,18.5
2022-08-22T03:30:01.900Z,18.5
2022-08-22T03:40:01.829Z,18.5
2022-08-22T03:50:01.896Z,18.5
2022-08-22T04:00:01.787Z,18.5
2022-08-22T04:10:01.886Z,18.5
2022-08-22T04:20:01.981Z,18.5
2022-08-22T04:30:01.891Z,18
2022-08-22T04:40:02.031Z,18
2022-08-22T04:50:01.902Z,18
2022-08-22T05:00:01.987Z,18
2022-08-22T05:10:09.192Z,18
2022-08-22T05:20:01.981Z,18
2022-08-22T05:30:01.868Z,18
2022-08-22T05:40:02.033Z,18
2022-08-22T05:50:02.066Z,18
2022-08-22T06:00:01.965Z,18
2022-08-22T06:10:02.067Z,18
2022-08-22T06:20:01.958Z,18
2022-08-22T06:30:03.112Z,18
2022-08-22T06:40:02.037Z,18
2022-08-22T06:50:02.063Z,18
2022-08-22T07:00:01.972Z,18
2022-08-22T07:10:02.061Z,18
2022-08-22T07:20:01.976Z,18
2022-08-22T07:30:02.068Z,19.5
2022-08-22T07:40:02.279Z,19.5
2022-08-22T07:50:02.076Z,19.5
2022-08-22T08:00:02.169Z,19.5
2022-08-22T08:10:02.070Z,19.5
2022-08-22T08:20:02.161Z,19.5
2022-08-22T08:30:02.069Z,19.5
2022-08-22T08:40:02.239Z,19.5
2022-08-22T08:50:02.096Z,29.5
2022-08-22T09:00:02.184Z,33
2022-08-22T09:10:02.302Z,34.5
2022-08-22T09:20:02.197Z,38
2022-08-22T09:30:02.310Z,33
2022-08-22T09:40:02.236Z,34
2022-08-22T09:50:02.294Z,33.5
2022-08-22T10:00:02.213Z,33.5
2022-08-22T10:10:02.296Z,34
2022-08-22T10:20:02.193Z,29.5
2022-08-22T10:30:02.275Z,28.5
2022-08-22T10:40:02.469Z,26.5
2022-08-22T10:50:02.279Z,26.5
2022-08-22T11:00:02.378Z,25.5
2022-08-22T11:10:02.277Z,25.5
2022-08-22T11:20:02.517Z,24.5
2022-08-22T11:30:02.322Z,24.5
2022-08-22T11:40:02.419Z,24.5
2022-08-22T11:50:02.294Z,24.5
2022-08-22T12:00:02.376Z,24.5
2022-08-22T12:10:02.518Z,23.5
2022-08-22T12:20:17.494Z,22.5
2022-08-22T12:30:02.468Z,22
2022-08-22T12:40:02.476Z,21.5
2022-08-22T12:50:02.470Z,21
2022-08-22T13:00:02.347Z,21
2022-08-22T13:10:03.108Z,20.5
2022-08-22T13:20:02.340Z,20.5
2022-08-22T13:30:02.477Z,20.5
2022-08-22T13:40:02.659Z,19.5
2022-08-22T13:50:02.430Z,19.5
2022-08-22T14:00:06.078Z,19.5
2022-08-22T14:10:02.528Z,19.5
2022-08-22T14:20:02.543Z,19.5
2022-08-22T14:30:02.894Z,19.5
2022-08-22T14:40:02.608Z,20
2022-08-22T14:50:02.630Z,20
2022-08-22T15:00:02.526Z,21.5
2022-08-22T15:10:03.043Z,21.5
2022-08-22T15:20:02.525Z,22
2022-08-22T15:30:02.749Z,22
2022-08-22T15:40:02.779Z,22
2022-08-22T15:50:05.334Z,22
2022-08-22T16:00:02.657Z,22
2022-08-22T16:10:02.623Z,22
2022-08-22T16:20:02.750Z,22
2022-08-22T16:30:02.601Z,22
2022-08-22T16:40:02.779Z,22
2022-08-22T16:50:02.606Z,22
2022-08-22T17:00:02.710Z,22
2022-08-22T17:10:02.602Z,22
2022-08-22T17:20:02.703Z,22
2022-08-22T17:30:02.798Z,22
2022-08-22T17:40:02.716Z,22
2022-08-22T17:50:02.788Z,22
2022-08-22T18:00:02.689Z,22
2022-08-22T18:10:02.780Z,22
2022-08-22T18:20:02.765Z,22
2022-08-22T18:30:02.872Z,22
2022-08-22T18:40:02.740Z,22
2022-08-22T18:50:02.790Z,22
2022-08-22T19:00:02.876Z,22
2022-08-22T19:10:02.764Z,22
2022-08-22T19:20:02.794Z,22
2022-08-22T19:30:02.843Z,22
2022-08-22T19:40:02.788Z,22
2022-08-22T20:30:02.972Z,21
2022-08-22T20:40:02.880Z,21
2022-08-22T20:50:02.973Z,21
2022-08-22T21:00:02.865Z,21
2022-08-22T21:10:02.966Z,21
2022-08-22T21:20:02.859Z,21
2022-08-22T21:30:02.963Z,21
2022-08-22T21:40:02.900Z,21
2022-08-22T21:50:02.963Z,20.5
2022-08-22T22:00:02.860Z,20.5
2022-08-22T22:10:03.003Z,20.5
2022-08-22T22:20:02.891Z,20.5
2022-08-22T22:30:02.998Z,20.5
2022-08-22T22:40:07.200Z,20.5
2022-08-22T22:50:02.996Z,20.5
2022-08-22T23:00:03.097Z,20.5
2022-08-22T23:10:02.990Z,20.5
2022-08-22T23:20:03.200Z,20.5
2022-08-22T23:30:02.997Z,20.5
2022-08-22T23:40:03.181Z,19.5
2022-08-22T23:50:05.806Z,19
